createdAt,value
2023-05-07T00:00:07.181Z,76
2023-05-07T00:01:14.290Z,77
2023-05-07T00:02:21.818Z,83
2023-05-07T00:03:28.564Z,80
2023-05-07T00:04:35.364Z,75
2023-05-07T00:05:42.197Z,77
2023-05-07T00:06:49.877Z,72
2023-05-07T00:07:58.499Z,77
2023-05-07T00:09:03.451Z,74
2023-05-07T00:10:10.396Z,73
2023-05-07T00:11:17.080Z,80
2023-05-07T00:12:23.868Z,79
2023-05-07T00:13:30.718Z,72
2023-05-07T00:14:37.748Z,72
2023-05-07T00:15:45.872Z,70
2023-05-07T00:16:53.024Z,80
2023-05-07T00:18:00.001Z,69
2023-05-07T00:19:08.028Z,77
2023-05-07T00:20:15.908Z,75
2023-05-07T00:21:23.024Z,79
2023-05-07T00:22:30.037Z,74
2023-05-07T00:23:37.133Z,73
2023-05-07T00:24:44.002Z,81
2023-05-07T00:25:51.062Z,84
2023-05-07T00:26:58.465Z,79
2023-05-07T00:28:05.453Z,91
2023-05-07T00:29:12.372Z,78
2023-05-07T00:30:24.378Z,83
2023-05-07T00:31:31.252Z,79
2023-05-07T00:32:37.940Z,70
2023-05-07T00:33:44.699Z,78
2023-05-07T00:34:55.132Z,71
2023-05-07T00:36:02.122Z,65
2023-05-07T00:37:09.457Z,66
2023-05-07T00:38:16.392Z,66
2023-05-07T00:39:23.412Z,62
2023-05-07T00:40:30.298Z,59
2023-05-07T00:41:37.299Z,62
2023-05-07T00:42:44.351Z,59
2023-05-07T00:43:51.309Z,71
2023-05-07T00:44:58.394Z,59
2023-05-07T00:46:06.246Z,62
2023-05-07T00:47:13.197Z,56
2023-05-07T00:48:20.322Z,55
2023-05-07T00:49:27.353Z,60
2023-05-07T00:50:39.573Z,56
2023-05-07T00:51:46.558Z,54
2023-05-07T00:52:53.588Z,48
2023-05-07T00:54:03.138Z,50
2023-05-07T00:55:10.364Z,47
2023-05-07T00:56:17.159Z,42
2023-05-07T00:57:24.421Z,40
2023-05-07T00:58:31.325Z,38
2023-05-07T00:59:38.342Z,42
2023-05-07T01:00:45.292Z,38
2023-05-07T01:01:52.399Z,47
2023-05-07T01:02:59.428Z,40
2023-05-07T01:04:06.270Z,41
2023-05-07T01:05:13.203Z,38
2023-05-07T01:06:20.135Z,39
2023-05-07T01:07:27.136Z,33
2023-05-07T01:08:34.127Z,34
2023-05-07T01:09:41.194Z,36
2023-05-07T01:10:48.184Z,30
2023-05-07T01:11:55.099Z,32
2023-05-07T01:13:03.216Z,48
2023-05-07T01:14:10.151Z,38
2023-05-07T01:15:17.290Z,39
2023-05-07T01:16:24.254Z,32
2023-05-07T01:17:32.169Z,31
2023-05-07T01:18:39.037Z,36
2023-05-07T01:19:46.158Z,32
2023-05-07T01:20:53.247Z,28
2023-05-07T01:22:03.222Z,27
2023-05-07T01:23:13.073Z,34
2023-05-07T01:24:19.984Z,31
2023-05-07T01:25:26.996Z,26
2023-05-07T01:26:33.966Z,35
2023-05-07T01:27:40.901Z,39
2023-05-07T01:28:47.901Z,33
2023-05-07T01:29:54.797Z,41
2023-05-07T01:31:01.779Z,39
2023-05-07T01:32:08.668Z,36
2023-05-07T01:33:16.496Z,35
2023-05-07T01:34:23.704Z,36
2023-05-07T01:35:30.678Z,51
2023-05-07T01:36:37.625Z,51
2023-05-07T01:37:44.627Z,51
2023-05-07T01:38:51.646Z,46
2023-05-07T01:39:58.618Z,45
2023-05-07T01:41:05.536Z,52
2023-05-07T01:42:12.588Z,45
2023-05-07T01:43:19.505Z,43
2023-05-07T01:44:26.493Z,53
2023-05-07T01:45:35.356Z,43
2023-05-07T01:46:42.242Z,45
2023-05-07T01:47:49.194Z,48
2023-05-07T01:48:55.998Z,52
2023-05-07T01:50:03.028Z,49
2023-05-07T01:51:10.167Z,48
2023-05-07T01:52:18.039Z,40
2023-05-07T01:53:24.977Z,47
2023-05-07T01:54:33.096Z,42
2023-05-07T01:55:39.999Z,65
2023-05-07T01:56:46.975Z,64
2023-05-07T01:57:54.253Z,50
2023-05-07T01:59:02.197Z,51
2023-05-07T02:00:09.356Z,61
2023-05-07T02:01:16.364Z,51
2023-05-07T02:02:23.315Z,48
2023-05-07T02:03:30.639Z,45
2023-05-07T02:04:40.052Z,51
2023-05-07T02:05:47.006Z,42
2023-05-07T02:06:53.947Z,50
2023-05-07T02:08:00.919Z,45
2023-05-07T02:09:08.023Z,42
2023-05-07T02:10:15.029Z,43
2023-05-07T02:11:22.052Z,42
2023-05-07T02:12:29.034Z,40
2023-05-07T02:13:35.981Z,36
2023-05-07T02:14:42.788Z,41
2023-05-07T02:15:49.856Z,38
2023-05-07T02:16:56.909Z,33
2023-05-07T02:18:03.906Z,38
2023-05-07T02:19:10.742Z,37
2023-05-07T02:20:18.636Z,34
2023-05-07T02:21:25.903Z,31
2023-05-07T02:22:32.855Z,36
2023-05-07T02:23:39.732Z,41
2023-05-07T02:24:46.692Z,39
2023-05-07T02:25:54.613Z,49
2023-05-07T02:27:01.792Z,42
2023-05-07T02:28:08.763Z,35
2023-05-07T02:29:17.642Z,34
2023-05-07T02:30:24.573Z,34
2023-05-07T02:31:31.564Z,32
2023-05-07T02:32:41.405Z,41
2023-05-07T02:33:48.273Z,41
2023-05-07T02:34:56.073Z,34
2023-05-07T02:36:03.121Z,37
2023-05-07T02:37:13.287Z,43
2023-05-07T02:38:20.212Z,42
2023-05-07T02:39:27.152Z,43
2023-05-07T02:40:34.061Z,37
2023-05-07T02:41:41.182Z,41
2023-05-07T02:42:48.954Z,46
2023-05-07T02:43:55.912Z,38
2023-05-07T02:45:02.950Z,36
2023-05-07T02:46:10.396Z,41
2023-05-07T02:47:18.067Z,35
2023-05-07T02:48:25.073Z,44
2023-05-07T02:49:32.001Z,45
2023-05-07T02:50:39.043Z,34
2023-05-07T02:51:45.983Z,41
2023-05-07T02:52:52.999Z,39
2023-05-07T02:54:00.041Z,32
2023-05-07T02:55:07.081Z,38
2023-05-07T02:56:14.069Z,29
2023-05-07T02:57:21.028Z,27
2023-05-07T02:58:28.063Z,31
2023-05-07T02:59:34.967Z,33
2023-05-07T03:00:42.105Z,27
2023-05-07T03:01:48.954Z,26
2023-05-07T03:02:55.895Z,26
2023-05-07T03:04:03.023Z,27
2023-05-07T03:05:09.861Z,25
2023-05-07T03:06:16.818Z,36
2023-05-07T03:07:23.798Z,30
2023-05-07T03:08:30.734Z,31
2023-05-07T03:09:37.784Z,27
2023-05-07T03:10:45.028Z,29
2023-05-07T03:11:53.133Z,36
2023-05-07T03:13:00.145Z,27
2023-05-07T03:14:07.002Z,31
2023-05-07T03:15:13.964Z,35
2023-05-07T03:16:21.332Z,29
2023-05-07T03:17:28.333Z,30
2023-05-07T03:18:35.329Z,25
2023-05-07T03:19:42.274Z,35
2023-05-07T03:20:49.304Z,30
2023-05-07T03:21:57.380Z,29
2023-05-07T03:23:04.387Z,25
2023-05-07T03:24:11.321Z,34
2023-05-07T03:25:18.261Z,35
2023-05-07T03:26:25.256Z,30
2023-05-07T03:27:34.273Z,28
2023-05-07T03:28:41.444Z,35
2023-05-07T03:29:48.440Z,37
2023-05-07T03:30:55.324Z,36
2023-05-07T03:32:02.412Z,32
2023-05-07T03:33:09.371Z,42
2023-05-07T03:34:16.293Z,28
2023-05-07T03:35:23.215Z,35
2023-05-07T03:36:30.487Z,25
2023-05-07T03:37:37.515Z,30
2023-05-07T03:38:44.500Z,29
2023-05-07T03:39:51.510Z,28
2023-05-07T03:40:58.451Z,31
2023-05-07T03:42:05.328Z,31
2023-05-07T03:43:13.212Z,28
2023-05-07T03:44:20.134Z,29
2023-05-07T03:45:27.327Z,28
2023-05-07T03:46:34.427Z,27
2023-05-07T03:47:44.725Z,32
2023-05-07T03:48:51.612Z,25
2023-05-07T03:49:58.639Z,25
2023-05-07T03:51:05.612Z,28
2023-05-07T03:52:12.574Z,32
2023-05-07T03:53:19.557Z,27
2023-05-07T03:54:26.580Z,27
2023-05-07T03:55:33.555Z,29
2023-05-07T03:56:40.478Z,41
2023-05-07T03:57:47.503Z,31
2023-05-07T03:58:54.452Z,30
2023-05-07T04:00:01.449Z,32
2023-05-07T04:01:08.768Z,36
2023-05-07T04:02:15.698Z,35
2023-05-07T04:03:22.999Z,26
2023-05-07T04:04:29.801Z,33
2023-05-07T04:05:36.766Z,29
2023-05-07T04:06:43.742Z,30
2023-05-07T04:07:51.738Z,30
2023-05-07T04:08:58.665Z,31
2023-05-07T04:10:05.771Z,25
2023-05-07T04:11:13.077Z,26
2023-05-07T04:12:20.006Z,33
2023-05-07T04:13:27.235Z,29
2023-05-07T04:14:34.137Z,26
2023-05-07T04:15:41.316Z,27
2023-05-07T04:16:48.400Z,29
2023-05-07T04:17:56.391Z,38
2023-05-07T04:19:03.527Z,33
2023-05-07T04:20:11.447Z,37
2023-05-07T04:21:21.081Z,29
2023-05-07T04:22:28.128Z,42
2023-05-07T04:23:35.104Z,37
2023-05-07T04:24:42.247Z,32
2023-05-07T04:25:49.239Z,25
2023-05-07T04:26:56.288Z,37
2023-05-07T04:28:03.514Z,30
2023-05-07T04:29:10.507Z,34
2023-05-07T04:30:17.478Z,30
2023-05-07T04:31:24.603Z,33
2023-05-07T04:32:31.562Z,36
2023-05-07T04:33:38.591Z,33
2023-05-07T04:34:46.637Z,40
2023-05-07T04:35:53.538Z,32
2023-05-07T04:37:00.414Z,43
2023-05-07T04:38:07.334Z,34
2023-05-07T04:39:14.311Z,33
2023-05-07T04:40:21.233Z,47
2023-05-07T04:41:28.147Z,34
2023-05-07T04:42:36.005Z,33
2023-05-07T04:43:42.955Z,35
2023-05-07T04:44:49.861Z,37
2023-05-07T04:45:56.878Z,34
2023-05-07T04:47:03.672Z,30
2023-05-07T04:48:10.622Z,36
2023-05-07T04:49:19.387Z,49
2023-05-07T04:50:26.473Z,48
2023-05-07T04:51:33.422Z,43
2023-05-07T04:52:40.272Z,46
2023-05-07T04:53:47.139Z,45
2023-05-07T04:54:54.081Z,44
2023-05-07T04:56:01.003Z,31
2023-05-07T04:57:08.155Z,34
2023-05-07T04:58:15.325Z,44
2023-05-07T04:59:22.236Z,34
2023-05-07T05:00:29.160Z,32
2023-05-07T05:01:36.197Z,37
2023-05-07T05:02:43.219Z,40
2023-05-07T05:03:50.114Z,31
2023-05-07T05:04:56.976Z,50
2023-05-07T05:06:04.041Z,35
2023-05-07T05:07:10.860Z,51
2023-05-07T05:08:17.815Z,46
2023-05-07T05:09:24.709Z,41
2023-05-07T05:10:31.590Z,48
2023-05-07T05:11:38.516Z,59
2023-05-07T05:12:45.462Z,54
2023-05-07T05:13:52.621Z,57
2023-05-07T05:14:59.509Z,61
2023-05-07T05:16:06.455Z,59
2023-05-07T05:17:13.402Z,54
2023-05-07T05:18:20.550Z,52
2023-05-07T05:19:27.422Z,50
2023-05-07T05:20:34.334Z,59
2023-05-07T05:21:41.356Z,52
2023-05-07T05:22:48.108Z,55
2023-05-07T05:23:55.185Z,56
2023-05-07T05:25:02.276Z,51
2023-05-07T05:26:09.412Z,61
2023-05-07T05:27:16.311Z,73
2023-05-07T05:28:23.270Z,88
2023-05-07T05:29:30.198Z,78
2023-05-07T05:30:37.149Z,74
2023-05-07T05:31:44.167Z,77
2023-05-07T05:32:51.130Z,74
2023-05-07T05:33:57.957Z,89
2023-05-07T05:35:04.867Z,78
2023-05-07T05:36:12.059Z,85
2023-05-07T05:37:19.017Z,108
2023-05-07T05:38:25.830Z,112
2023-05-07T05:39:32.834Z,112
2023-05-07T05:40:40.813Z,119
2023-05-07T05:41:47.799Z,130
2023-05-07T05:42:54.677Z,117
2023-05-07T05:44:01.612Z,112
2023-05-07T05:45:08.666Z,114
2023-05-07T05:46:15.720Z,116
2023-05-07T05:47:22.777Z,93
2023-05-07T05:48:29.688Z,106
2023-05-07T05:49:36.757Z,101
2023-05-07T05:50:43.801Z,95
2023-05-07T05:51:50.758Z,103
2023-05-07T05:52:57.765Z,97
2023-05-07T05:54:04.696Z,114
2023-05-07T05:55:11.557Z,94
2023-05-07T05:56:18.542Z,87
2023-05-07T05:57:26.672Z,103
2023-05-07T05:58:33.235Z,122
2023-05-07T05:59:40.149Z,92
2023-05-07T06:00:47.118Z,115
2023-05-07T06:01:53.940Z,114
2023-05-07T06:03:03.176Z,121
2023-05-07T06:04:11.193Z,100
2023-05-07T06:05:18.313Z,86
2023-05-07T06:06:25.170Z,104
2023-05-07T06:07:32.059Z,101
2023-05-07T06:08:39.037Z,126
2023-05-07T06:09:46.018Z,121
2023-05-07T06:10:52.880Z,98
2023-05-07T06:12:00.804Z,112
2023-05-07T06:13:06.784Z,99
2023-05-07T06:14:13.685Z,95
2023-05-07T06:15:20.867Z,100
2023-05-07T06:16:29.047Z,100
2023-05-07T06:17:42.189Z,110
2023-05-07T06:18:50.307Z,108
2023-05-07T06:19:58.146Z,91
2023-05-07T06:21:05.060Z,94
2023-05-07T06:22:11.956Z,103
2023-05-07T06:23:18.873Z,83
2023-05-07T06:24:25.868Z,84
2023-05-07T06:25:32.845Z,90
2023-05-07T06:26:39.869Z,84
2023-05-07T06:27:46.838Z,88
2023-05-07T06:28:53.704Z,82
2023-05-07T06:30:00.821Z,103
2023-05-07T06:31:07.971Z,103
2023-05-07T06:32:20.032Z,108
2023-05-07T06:33:26.978Z,113
2023-05-07T06:34:34.857Z,113
2023-05-07T06:35:41.754Z,111
2023-05-07T06:36:48.677Z,102
2023-05-07T06:37:55.649Z,92
2023-05-07T06:39:02.758Z,96
2023-05-07T06:40:09.953Z,117
2023-05-07T06:41:16.634Z,105
2023-05-07T06:42:23.610Z,89
2023-05-07T06:43:30.540Z,88
2023-05-07T06:44:37.420Z,91
2023-05-07T06:45:44.442Z,83
2023-05-07T06:46:51.331Z,85
2023-05-07T06:47:58.432Z,81
2023-05-07T06:49:05.148Z,83
2023-05-07T06:50:12.274Z,73
2023-05-07T06:51:19.024Z,73
2023-05-07T06:52:25.983Z,79
2023-05-07T06:53:33.093Z,102
2023-05-07T06:54:40.251Z,92
2023-05-07T06:55:48.851Z,76
2023-05-07T06:56:55.481Z,86
2023-05-07T06:58:02.389Z,67
2023-05-07T06:59:09.324Z,69
2023-05-07T07:00:16.525Z,64
2023-05-07T07:01:23.795Z,58
2023-05-07T07:02:30.666Z,67
2023-05-07T07:03:37.525Z,69
2023-05-07T07:04:44.419Z,51
2023-05-07T07:05:51.550Z,66
2023-05-07T07:06:58.600Z,54
2023-05-07T07:08:05.477Z,45
2023-05-07T07:09:12.480Z,49
2023-05-07T07:10:20.328Z,56
2023-05-07T07:11:27.356Z,50
2023-05-07T07:12:34.397Z,40
2023-05-07T07:13:41.406Z,41
2023-05-07T07:14:48.362Z,42
2023-05-07T07:15:55.365Z,45
2023-05-07T07:17:02.356Z,58
2023-05-07T07:18:09.384Z,60
2023-05-07T07:19:16.330Z,60
2023-05-07T07:20:23.308Z,39
2023-05-07T07:21:30.325Z,44
2023-05-07T07:22:37.297Z,59
2023-05-07T07:23:44.307Z,60
2023-05-07T07:24:51.252Z,58
2023-05-07T07:25:58.192Z,37
2023-05-07T07:27:05.192Z,39
2023-05-07T07:28:12.258Z,35
2023-05-07T07:29:19.335Z,60
2023-05-07T07:30:26.283Z,42
2023-05-07T07:31:33.267Z,34
2023-05-07T07:32:41.148Z,40
2023-05-07T07:33:49.396Z,34
2023-05-07T07:34:56.026Z,35
2023-05-07T07:36:03.038Z,28
2023-05-07T07:37:10.122Z,25
2023-05-07T07:38:17.095Z,34
2023-05-07T07:39:24.086Z,32
2023-05-07T07:40:31.210Z,39
2023-05-07T07:41:41.095Z,61
2023-05-07T07:42:48.145Z,40
2023-05-07T07:43:54.964Z,47
2023-05-07T07:45:01.905Z,29
2023-05-07T07:46:09.196Z,36
2023-05-07T07:47:16.413Z,33
2023-05-07T07:48:23.302Z,33
2023-05-07T07:49:30.228Z,25
2023-05-07T07:50:44.949Z,37
2023-05-07T07:51:45.139Z,27
2023-05-07T07:52:52.278Z,28
2023-05-07T07:53:59.280Z,32
2023-05-07T07:55:06.117Z,33
2023-05-07T07:56:13.292Z,31
2023-05-07T07:57:20.246Z,25
2023-05-07T07:58:27.333Z,56
2023-05-07T07:59:34.187Z,42
2023-05-07T08:00:41.050Z,34
2023-05-07T08:01:48.073Z,36
2023-05-07T08:02:55.256Z,28
2023-05-07T08:04:02.152Z,34
2023-05-07T08:05:09.002Z,53
2023-05-07T08:06:15.964Z,48
2023-05-07T08:07:23.005Z,59
2023-05-07T08:08:29.940Z,57
2023-05-07T08:09:36.882Z,53
2023-05-07T08:10:43.774Z,42
2023-05-07T08:11:50.724Z,58
2023-05-07T08:12:57.695Z,48
2023-05-07T08:14:04.723Z,61
2023-05-07T08:15:11.689Z,66
2023-05-07T08:16:18.654Z,69
2023-05-07T08:17:25.662Z,61
2023-05-07T08:18:32.507Z,49
2023-05-07T08:19:39.375Z,56
2023-05-07T08:20:46.437Z,39
2023-05-07T08:21:53.388Z,46
2023-05-07T08:23:00.268Z,41
2023-05-07T08:24:07.156Z,29
2023-05-07T08:25:14.089Z,25
2023-05-07T08:26:21.124Z,26
2023-05-07T08:27:28.049Z,32
2023-05-07T08:28:34.960Z,30
2023-05-07T08:29:42.037Z,25
2023-05-07T08:30:49.001Z,32
2023-05-07T08:31:55.972Z,35
2023-05-07T08:33:02.896Z,31
2023-05-07T08:34:10.285Z,25
2023-05-07T08:35:16.816Z,28
2023-05-07T08:36:23.898Z,28
2023-05-07T08:37:30.813Z,25
2023-05-07T08:38:37.781Z,33
2023-05-07T08:39:47.565Z,28
2023-05-07T08:40:54.463Z,28
2023-05-07T08:42:01.482Z,25
2023-05-07T08:43:08.520Z,28
2023-05-07T08:44:18.596Z,27
2023-05-07T08:45:25.830Z,25
2023-05-07T08:46:32.764Z,29
2023-05-07T08:47:39.642Z,28
2023-05-07T08:48:49.524Z,30
2023-05-07T08:49:56.515Z,30
2023-05-07T08:51:03.611Z,28
2023-05-07T08:52:10.634Z,29
2023-05-07T08:53:17.555Z,44
2023-05-07T08:54:24.443Z,36
2023-05-07T08:55:31.361Z,30
2023-05-07T08:56:38.322Z,25
2023-05-07T08:57:45.310Z,27
2023-05-07T08:58:52.176Z,35
2023-05-07T08:59:59.083Z,35
2023-05-07T09:01:06.050Z,31
2023-05-07T09:02:18.233Z,29
2023-05-07T09:03:25.081Z,30
2023-05-07T09:04:31.956Z,28
2023-05-07T09:05:39.027Z,34
2023-05-07T09:06:46.892Z,33
2023-05-07T09:07:54.663Z,29
2023-05-07T09:09:00.724Z,34
2023-05-07T09:10:07.724Z,25
2023-05-07T09:11:14.863Z,25
2023-05-07T09:12:21.821Z,30
2023-05-07T09:13:28.779Z,51
2023-05-07T09:14:35.721Z,37
2023-05-07T09:15:42.886Z,38
2023-05-07T09:16:50.013Z,48
2023-05-07T09:17:56.809Z,30
2023-05-07T09:19:03.732Z,37
2023-05-07T09:20:11.342Z,39
2023-05-07T09:21:17.882Z,48
2023-05-07T09:22:24.955Z,37
2023-05-07T09:23:31.985Z,25
2023-05-07T09:24:38.909Z,28
2023-05-07T09:25:45.893Z,29
2023-05-07T09:26:53.171Z,30
2023-05-07T09:28:00.225Z,25
2023-05-07T09:29:07.183Z,35
2023-05-07T09:30:14.152Z,29
2023-05-07T09:31:21.708Z,41
2023-05-07T09:32:31.120Z,30
2023-05-07T09:33:37.995Z,38
2023-05-07T09:34:44.872Z,31
2023-05-07T09:35:51.983Z,32
2023-05-07T09:36:58.893Z,40
2023-05-07T09:38:08.889Z,35
2023-05-07T09:39:15.861Z,28
2023-05-07T09:40:22.832Z,31
2023-05-07T09:41:29.812Z,38
2023-05-07T09:42:36.761Z,44
2023-05-07T09:43:43.712Z,25
2023-05-07T09:44:50.600Z,33
2023-05-07T09:45:57.617Z,31
2023-05-07T09:47:04.548Z,32
2023-05-07T09:48:11.751Z,32
2023-05-07T09:49:20.432Z,36
2023-05-07T09:50:25.332Z,28
2023-05-07T09:51:32.355Z,38
2023-05-07T09:52:45.849Z,38
2023-05-07T09:53:52.773Z,34
2023-05-07T09:54:59.766Z,34
2023-05-07T09:56:06.745Z,40
2023-05-07T09:57:13.716Z,33
2023-05-07T09:58:20.642Z,35
2023-05-07T09:59:29.835Z,26
2023-05-07T10:00:35.352Z,43
2023-05-07T10:01:42.440Z,31
2023-05-07T10:02:49.395Z,25
2023-05-07T10:03:58.470Z,41
2023-05-07T10:05:05.167Z,43
2023-05-07T10:06:13.117Z,25
2023-05-07T10:07:20.197Z,27
2023-05-07T10:08:27.136Z,50
2023-05-07T10:09:34.072Z,47
2023-05-07T10:10:40.966Z,31
2023-05-07T10:11:47.904Z,32
2023-05-07T10:12:54.968Z,25
2023-05-07T10:14:04.911Z,29
2023-05-07T10:15:13.258Z,39
2023-05-07T10:16:19.975Z,43
2023-05-07T10:17:26.907Z,35
2023-05-07T10:18:34.012Z,35
2023-05-07T10:19:41.014Z,29
2023-05-07T10:20:47.844Z,25
2023-05-07T10:21:54.729Z,38
2023-05-07T10:23:01.653Z,26
2023-05-07T10:24:08.597Z,25
2023-05-07T10:25:15.668Z,50
2023-05-07T10:26:23.555Z,62
2023-05-07T10:27:31.370Z,36
2023-05-07T10:28:38.325Z,34
2023-05-07T10:29:45.277Z,50
2023-05-07T10:30:57.359Z,64
2023-05-07T10:32:09.318Z,38
2023-05-07T10:33:27.477Z,59
2023-05-07T10:34:34.465Z,59
2023-05-07T10:35:41.618Z,49
2023-05-07T10:36:48.445Z,39
2023-05-07T10:37:55.407Z,54
2023-05-07T10:39:03.111Z,41
2023-05-07T10:40:10.192Z,51
2023-05-07T10:41:17.569Z,56
2023-05-07T10:42:25.289Z,52
2023-05-07T10:43:32.204Z,47
2023-05-07T10:44:45.192Z,43
2023-05-07T10:45:52.146Z,32
2023-05-07T10:47:09.551Z,40
2023-05-07T10:49:26.672Z,26
2023-05-07T10:50:33.718Z,26
2023-05-07T10:51:43.443Z,25
2023-05-07T10:52:50.263Z,32
2023-05-07T10:54:08.677Z,35
2023-05-07T10:55:16.441Z,30
2023-05-07T10:56:23.570Z,31
2023-05-07T10:57:30.553Z,47
2023-05-07T10:58:37.487Z,49
2023-05-07T10:59:44.462Z,39
2023-05-07T11:00:51.587Z,53
2023-05-07T11:01:58.991Z,38
2023-05-07T11:03:05.593Z,35
2023-05-07T11:04:12.531Z,26
2023-05-07T11:05:19.717Z,26
2023-05-07T11:06:26.700Z,36
2023-05-07T11:07:33.788Z,38
2023-05-07T11:08:40.723Z,49
2023-05-07T11:09:58.162Z,49
2023-05-07T11:11:06.034Z,42
2023-05-07T11:12:12.943Z,26
2023-05-07T11:13:19.957Z,37
2023-05-07T11:14:37.187Z,56
2023-05-07T11:15:46.925Z,31
2023-05-07T11:16:53.830Z,36
2023-05-07T11:18:00.797Z,39
2023-05-07T11:19:07.796Z,35
2023-05-07T11:20:14.986Z,45
2023-05-07T11:21:21.921Z,25
2023-05-07T11:22:40.237Z,35
2023-05-07T11:23:47.005Z,50
2023-05-07T11:24:54.148Z,30
2023-05-07T11:26:01.166Z,34
2023-05-07T11:27:13.435Z,55
2023-05-07T11:28:20.449Z,45
2023-05-07T11:29:27.445Z,35
2023-05-07T11:30:34.421Z,32
2023-05-07T11:31:41.563Z,55
2023-05-07T11:32:48.515Z,25
2023-05-07T11:33:55.419Z,29
2023-05-07T11:35:02.362Z,25
2023-05-07T11:36:09.482Z,41
2023-05-07T11:37:16.591Z,35
2023-05-07T11:38:23.582Z,38
2023-05-07T11:39:30.512Z,44
2023-05-07T11:40:40.741Z,44
2023-05-07T11:41:53.672Z,55
2023-05-07T11:42:59.958Z,60
2023-05-07T11:44:06.888Z,35
2023-05-07T11:45:14.045Z,27
2023-05-07T11:46:21.456Z,39
2023-05-07T11:47:28.476Z,40
2023-05-07T11:48:35.422Z,37
2023-05-07T11:49:51.054Z,31
2023-05-07T11:50:57.940Z,32
2023-05-07T11:52:06.729Z,33
2023-05-07T11:53:13.920Z,35
2023-05-07T11:54:19.759Z,26
2023-05-07T11:55:27.592Z,34
2023-05-07T11:56:34.643Z,48
2023-05-07T11:57:41.565Z,58
2023-05-07T11:58:48.467Z,52
2023-05-07T11:59:55.404Z,52
2023-05-07T12:01:02.388Z,41
2023-05-07T12:02:10.396Z,60
2023-05-07T12:03:20.370Z,50
2023-05-07T12:04:28.201Z,43
2023-05-07T12:05:35.093Z,49
2023-05-07T12:06:42.008Z,54
2023-05-07T12:07:49.000Z,35
2023-05-07T12:08:55.933Z,38
2023-05-07T12:10:03.788Z,33
2023-05-07T12:11:10.877Z,37
2023-05-07T12:12:20.353Z,57
2023-05-07T12:13:29.295Z,36
2023-05-07T12:14:37.146Z,36
2023-05-07T12:15:45.013Z,42
2023-05-07T12:16:52.034Z,51
2023-05-07T12:17:59.140Z,37
2023-05-07T12:19:09.559Z,32
2023-05-07T12:20:19.510Z,25
2023-05-07T12:21:26.503Z,27
2023-05-07T12:22:33.533Z,27
2023-05-07T12:23:41.659Z,31
2023-05-07T12:24:48.676Z,29
2023-05-07T12:25:55.547Z,26
2023-05-07T12:27:03.427Z,25
2023-05-07T12:28:10.389Z,42
2023-05-07T12:29:17.312Z,37
2023-05-07T12:30:31.199Z,64
2023-05-07T12:31:41.270Z,52
2023-05-07T12:32:48.203Z,34
2023-05-07T12:33:57.774Z,50
2023-05-07T12:35:04.762Z,46
2023-05-07T12:36:11.898Z,50
2023-05-07T12:37:18.984Z,27
2023-05-07T12:38:29.914Z,28
2023-05-07T12:39:40.507Z,25
2023-05-07T12:40:56.065Z,41
2023-05-07T12:42:03.010Z,32
2023-05-07T12:43:09.996Z,34
2023-05-07T12:44:19.837Z,31
2023-05-07T12:45:30.834Z,38
2023-05-07T12:46:43.849Z,41
2023-05-07T12:47:50.905Z,31
2023-05-07T12:49:00.021Z,46
2023-05-07T12:50:06.961Z,47
2023-05-07T12:51:14.010Z,46
2023-05-07T12:52:21.060Z,35
2023-05-07T12:53:28.900Z,33
2023-05-07T12:54:35.950Z,35
2023-05-07T12:55:42.867Z,56
2023-05-07T12:56:49.799Z,61
2023-05-07T12:57:56.791Z,55
2023-05-07T12:59:03.832Z,56
2023-05-07T13:00:10.781Z,40
2023-05-07T13:01:18.072Z,56
2023-05-07T13:02:25.104Z,57
2023-05-07T13:03:37.302Z,60
2023-05-07T13:04:45.132Z,58
2023-05-07T13:05:52.023Z,39
2023-05-07T13:07:01.805Z,37
2023-05-07T13:08:08.748Z,50
2023-05-07T13:09:16.060Z,54
2023-05-07T13:10:23.001Z,56
2023-05-07T13:11:30.188Z,34
2023-05-07T13:12:37.327Z,62
2023-05-07T13:13:44.179Z,48
2023-05-07T13:14:51.119Z,45
2023-05-07T13:15:58.160Z,45
2023-05-07T13:17:05.270Z,47
2023-05-07T13:18:12.424Z,47
2023-05-07T13:19:19.260Z,33
2023-05-07T13:20:26.167Z,48
2023-05-07T13:21:33.179Z,56
2023-05-07T13:22:40.119Z,61
2023-05-07T13:23:47.706Z,55
2023-05-07T13:24:54.690Z,68
2023-05-07T13:26:06.321Z,56
2023-05-07T13:27:08.747Z,61
2023-05-07T13:28:15.838Z,66
2023-05-07T13:29:22.724Z,55
2023-05-07T13:30:29.738Z,58
2023-05-07T13:31:36.761Z,71
2023-05-07T13:32:43.749Z,67
2023-05-07T13:33:50.782Z,73
2023-05-07T13:34:57.801Z,67
2023-05-07T13:36:04.910Z,64
2023-05-07T13:37:12.302Z,69
2023-05-07T13:38:19.145Z,63
2023-05-07T13:39:26.201Z,61
2023-05-07T13:40:33.140Z,76
2023-05-07T13:41:40.295Z,48
2023-05-07T13:42:47.354Z,62
2023-05-07T13:43:54.291Z,70
2023-05-07T13:45:01.315Z,65
2023-05-07T13:46:08.507Z,67
2023-05-07T13:47:15.491Z,64
2023-05-07T13:48:22.448Z,66
2023-05-07T13:49:29.437Z,47
2023-05-07T13:50:36.496Z,38
2023-05-07T13:51:43.443Z,47
2023-05-07T13:52:50.277Z,79
2023-05-07T13:53:57.219Z,73
2023-05-07T13:55:04.275Z,49
2023-05-07T13:56:11.593Z,46
2023-05-07T13:57:18.515Z,45
2023-05-07T13:58:25.414Z,46
2023-05-07T13:59:32.423Z,53
2023-05-07T14:00:39.552Z,60
2023-05-07T14:01:46.447Z,62
2023-05-07T14:02:53.620Z,59
2023-05-07T14:04:01.290Z,53
2023-05-07T14:05:08.224Z,67
2023-05-07T14:06:15.389Z,38
2023-05-07T14:07:22.531Z,36
2023-05-07T14:08:31.614Z,54
2023-05-07T14:09:36.312Z,45
2023-05-07T14:10:43.254Z,28
2023-05-07T14:11:50.420Z,36
2023-05-07T14:12:57.490Z,34
2023-05-07T14:14:04.284Z,27
2023-05-07T14:15:11.188Z,25
2023-05-07T14:16:18.261Z,30
2023-05-07T14:17:25.189Z,31
2023-05-07T14:18:32.083Z,27
2023-05-07T14:19:39.026Z,30
2023-05-07T14:20:45.983Z,31
2023-05-07T14:21:52.968Z,29
2023-05-07T14:23:00.846Z,30
2023-05-07T14:24:07.758Z,49
2023-05-07T14:25:14.845Z,44
2023-05-07T14:26:21.743Z,36
2023-05-07T14:27:28.754Z,30
2023-05-07T14:28:35.725Z,59
2023-05-07T14:29:42.705Z,49
2023-05-07T14:30:49.671Z,58
2023-05-07T14:31:56.605Z,49
2023-05-07T14:33:03.634Z,41
2023-05-07T14:34:16.248Z,41
2023-05-07T14:35:33.081Z,29
2023-05-07T14:36:44.639Z,51
2023-05-07T14:37:51.626Z,42
2023-05-07T14:38:58.690Z,58
2023-05-07T14:40:05.626Z,51
2023-05-07T14:41:12.991Z,32
2023-05-07T14:42:20.966Z,56
2023-05-07T14:43:27.950Z,58
2023-05-07T14:44:34.891Z,48
2023-05-07T14:45:41.851Z,57
2023-05-07T14:46:48.799Z,51
2023-05-07T14:47:55.916Z,55
2023-05-07T14:49:03.679Z,43
2023-05-07T14:50:10.619Z,33
2023-05-07T14:51:19.439Z,45
2023-05-07T14:52:26.357Z,51
2023-05-07T14:53:33.395Z,33
2023-05-07T14:54:40.432Z,57
2023-05-07T14:55:47.279Z,32
2023-05-07T14:56:54.358Z,48
2023-05-07T14:58:01.300Z,50
2023-05-07T14:59:08.231Z,35
2023-05-07T15:00:15.278Z,44
2023-05-07T15:01:22.375Z,32
2023-05-07T15:02:29.358Z,31
2023-05-07T15:03:36.395Z,30
2023-05-07T15:04:43.373Z,26
2023-05-07T15:05:54.162Z,47
2023-05-07T15:07:01.224Z,40
2023-05-07T15:08:08.265Z,25
2023-05-07T15:09:15.268Z,32
2023-05-07T15:10:22.179Z,49
2023-05-07T15:11:29.138Z,40
2023-05-07T15:12:36.279Z,43
2023-05-07T15:13:43.205Z,41
2023-05-07T15:14:50.135Z,52
2023-05-07T15:15:57.976Z,60
2023-05-07T15:17:04.954Z,46
2023-05-07T15:18:11.981Z,49
2023-05-07T15:19:18.909Z,52
2023-05-07T15:20:25.851Z,36
2023-05-07T15:21:32.783Z,37
2023-05-07T15:22:39.896Z,52
2023-05-07T15:23:46.907Z,38
2023-05-07T15:24:53.890Z,40
2023-05-07T15:26:00.810Z,40
2023-05-07T15:27:07.734Z,33
2023-05-07T15:28:14.754Z,41
2023-05-07T15:29:21.664Z,40
2023-05-07T15:30:28.617Z,42
2023-05-07T15:31:35.637Z,41
2023-05-07T15:32:42.689Z,25
2023-05-07T15:33:49.756Z,25
2023-05-07T15:34:56.715Z,35
2023-05-07T15:36:03.589Z,25
2023-05-07T15:37:10.671Z,40
2023-05-07T15:38:17.541Z,59
2023-05-07T15:39:25.213Z,46
2023-05-07T15:40:31.737Z,43
2023-05-07T15:41:38.683Z,40
2023-05-07T15:42:45.614Z,63
2023-05-07T15:43:52.580Z,49
2023-05-07T15:44:59.686Z,57
2023-05-07T15:46:06.703Z,39
2023-05-07T15:47:13.672Z,36
2023-05-07T15:48:20.622Z,59
2023-05-07T15:49:27.532Z,48
2023-05-07T15:50:34.688Z,39
2023-05-07T15:51:41.823Z,55
2023-05-07T15:52:49.612Z,51
2023-05-07T15:53:56.554Z,38
2023-05-07T15:55:03.661Z,25
2023-05-07T15:56:10.961Z,51
2023-05-07T15:57:17.997Z,32
2023-05-07T15:58:25.922Z,42
2023-05-07T15:59:32.907Z,39
2023-05-07T16:00:39.869Z,43